sensor_id;sensor_type;location;lat;lon;timestamp;temperature;humidity
67192;HTU21D;54120;53.504;49.426;2022-11-13T00:02:05;8.17;106.66
67192;HTU21D;54120;53.504;49.426;2022-11-13T00:04:31;8.11;106.63
67192;HTU21D;54120;53.504;49.426;2022-11-13T00:06:57;8.09;106.60
67192;HTU21D;54120;53.504;49.426;2022-11-13T00:09:23;8.08;106.56
67192;HTU21D;54120;53.504;49.426;2022-11-13T00:11:49;8.11;106.50
67192;HTU21D;54120;53.504;49.426;2022-11-13T00:14:15;8.15;106.45
67192;HTU21D;54120;53.504;49.426;2022-11-13T00:16:41;8.17;106.39
67192;HTU21D;54120;53.504;49.426;2022-11-13T00:19:07;8.24;106.35
67192;HTU21D;54120;53.504;49.426;2022-11-13T00:21:33;8.33;106.24
67192;HTU21D;54120;53.504;49.426;2022-11-13T00:23:59;8.44;105.71
67192;HTU21D;54120;53.504;49.426;2022-11-13T00:26:28;8.45;105.24
67192;HTU21D;54120;53.504;49.426;2022-11-13T00:28:57;8.42;104.40
67192;HTU21D;54120;53.504;49.426;2022-11-13T00:31:24;8.46;103.95
67192;HTU21D;54120;53.504;49.426;2022-11-13T00:33:50;8.44;102.38
67192;HTU21D;54120;53.504;49.426;2022-11-13T00:36:22;8.57;101.09
67192;HTU21D;54120;53.504;49.426;2022-11-13T00:38:48;8.60;101.35
67192;HTU21D;54120;53.504;49.426;2022-11-13T00:41:14;8.60;100.41
67192;HTU21D;54120;53.504;49.426;2022-11-13T00:43:41;8.66;98.91
67192;HTU21D;54120;53.504;49.426;2022-11-13T00:46:07;8.71;96.23
67192;HTU21D;54120;53.504;49.426;2022-11-13T00:48:34;8.74;93.36
67192;HTU21D;54120;53.504;49.426;2022-11-13T00:51:00;8.86;88.16
67192;HTU21D;54120;53.504;49.426;2022-11-13T00:53:26;8.81;89.05
67192;HTU21D;54120;53.504;49.426;2022-11-13T00:55:52;8.79;87.32
67192;HTU21D;54120;53.504;49.426;2022-11-13T00:58:18;8.79;86.01
67192;HTU21D;54120;53.504;49.426;2022-11-13T01:00:46;8.83;85.21
67192;HTU21D;54120;53.504;49.426;2022-11-13T01:03:13;8.90;86.00
67192;HTU21D;54120;53.504;49.426;2022-11-13T01:05:42;8.90;84.87
67192;HTU21D;54120;53.504;49.426;2022-11-13T01:08:10;8.92;85.77
67192;HTU21D;54120;53.504;49.426;2022-11-13T01:10:46;8.93;85.18
67192;HTU21D;54120;53.504;49.426;2022-11-13T01:13:13;8.89;84.02
67192;HTU21D;54120;53.504;49.426;2022-11-13T01:15:43;8.93;83.65
67192;HTU21D;54120;53.504;49.426;2022-11-13T01:18:10;8.95;83.38
67192;HTU21D;54120;53.504;49.426;2022-11-13T01:20:37;8.91;84.68
67192;HTU21D;54120;53.504;49.426;2022-11-13T01:23:03;8.91;84.68
67192;HTU21D;54120;53.504;49.426;2022-11-13T01:25:30;8.90;85.26
67192;HTU21D;54120;53.504;49.426;2022-11-13T01:27:56;8.85;85.26
67192;HTU21D;54120;53.504;49.426;2022-11-13T01:30:22;8.82;84.77
67192;HTU21D;54120;53.504;49.426;2022-11-13T01:32:49;8.86;85.41
67192;HTU21D;54120;53.504;49.426;2022-11-13T01:35:15;8.88;85.27
67192;HTU21D;54120;53.504;49.426;2022-11-13T01:37:41;8.90;85.23
67192;HTU21D;54120;53.504;49.426;2022-11-13T01:40:09;8.93;84.85
67192;HTU21D;54120;53.504;49.426;2022-11-13T01:42:37;8.95;84.01
67192;HTU21D;54120;53.504;49.426;2022-11-13T01:45:03;9.05;83.59
67192;HTU21D;54120;53.504;49.426;2022-11-13T01:47:29;9.09;83.01
67192;HTU21D;54120;53.504;49.426;2022-11-13T01:50:00;9.10;83.26
67192;HTU21D;54120;53.504;49.426;2022-11-13T01:52:35;9.06;83.49
67192;HTU21D;54120;53.504;49.426;2022-11-13T01:55:15;9.05;83.47
67192;HTU21D;54120;53.504;49.426;2022-11-13T01:57:42;9.09;82.57
67192;HTU21D;54120;53.504;49.426;2022-11-13T02:00:09;9.12;81.62
67192;HTU21D;54120;53.504;49.426;2022-11-13T02:02:36;9.16;82.58
67192;HTU21D;54120;53.504;49.426;2022-11-13T02:05:03;9.10;82.16
67192;HTU21D;54120;53.504;49.426;2022-11-13T02:07:29;9.17;81.47
67192;HTU21D;54120;53.504;49.426;2022-11-13T02:09:56;9.18;80.55
67192;HTU21D;54120;53.504;49.426;2022-11-13T02:12:36;9.22;80.46
67192;HTU21D;54120;53.504;49.426;2022-11-13T02:15:04;9.24;80.10
67192;HTU21D;54120;53.504;49.426;2022-11-13T02:17:42;9.27;78.06
67192;HTU21D;54120;53.504;49.426;2022-11-13T02:20:10;9.29;78.83
67192;HTU21D;54120;53.504;49.426;2022-11-13T02:22:43;9.31;78.01
67192;HTU21D;54120;53.504;49.426;2022-11-13T02:25:15;9.33;77.67
67192;HTU21D;54120;53.504;49.426;2022-11-13T02:27:44;9.34;76.28
67192;HTU21D;54120;53.504;49.426;2022-11-13T02:30:34;9.41;74.93
67192;HTU21D;54120;53.504;49.426;2022-11-13T02:32:59;9.40;76.82
67192;HTU21D;54120;53.504;49.426;2022-11-13T02:35:30;9.35;75.70
67192;HTU21D;54120;53.504;49.426;2022-11-13T02:37:58;9.34;75.61
67192;HTU21D;54120;53.504;49.426;2022-11-13T02:40:25;9.34;75.29
67192;HTU21D;54120;53.504;49.426;2022-11-13T02:42:51;9.34;75.44
67192;HTU21D;54120;53.504;49.426;2022-11-13T02:45:17;9.33;75.79
67192;HTU21D;54120;53.504;49.426;2022-11-13T02:47:43;9.29;75.05
67192;HTU21D;54120;53.504;49.426;2022-11-13T02:50:11;9.27;76.61
67192;HTU21D;54120;53.504;49.426;2022-11-13T02:52:37;9.22;76.26
67192;HTU21D;54120;53.504;49.426;2022-11-13T02:55:04;9.21;75.61
67192;HTU21D;54120;53.504;49.426;2022-11-13T02:57:30;9.25;76.15
67192;HTU21D;54120;53.504;49.426;2022-11-13T02:59:56;9.22;75.67
67192;HTU21D;54120;53.504;49.426;2022-11-13T03:02:23;9.21;75.78
67192;HTU21D;54120;53.504;49.426;2022-11-13T03:04:49;9.27;74.73
67192;HTU21D;54120;53.504;49.426;2022-11-13T03:07:15;9.32;73.64
67192;HTU21D;54120;53.504;49.426;2022-11-13T03:09:41;9.37;73.83
67192;HTU21D;54120;53.504;49.426;2022-11-13T03:12:08;9.37;73.57
67192;HTU21D;54120;53.504;49.426;2022-11-13T03:14:35;9.38;71.97
67192;HTU21D;54120;53.504;49.426;2022-11-13T03:17:01;9.37;72.41
67192;HTU21D;54120;53.504;49.426;2022-11-13T03:19:27;9.30;73.34
67192;HTU21D;54120;53.504;49.426;2022-11-13T03:21:53;9.26;73.00
67192;HTU21D;54120;53.504;49.426;2022-11-13T03:24:19;9.26;72.97
67192;HTU21D;54120;53.504;49.426;2022-11-13T03:26:45;9.21;74.18
67192;HTU21D;54120;53.504;49.426;2022-11-13T03:29:11;9.19;73.77
67192;HTU21D;54120;53.504;49.426;2022-11-13T03:31:38;9.15;75.04
67192;HTU21D;54120;53.504;49.426;2022-11-13T03:34:04;9.09;75.59
67192;HTU21D;54120;53.504;49.426;2022-11-13T03:36:30;9.16;75.02
67192;HTU21D;54120;53.504;49.426;2022-11-13T03:38:56;9.16;74.98
67192;HTU21D;54120;53.504;49.426;2022-11-13T03:41:22;9.17;75.50
67192;HTU21D;54120;53.504;49.426;2022-11-13T03:43:48;9.12;75.99
67192;HTU21D;54120;53.504;49.426;2022-11-13T03:46:14;9.10;76.05
67192;HTU21D;54120;53.504;49.426;2022-11-13T03:48:40;9.09;76.10
67192;HTU21D;54120;53.504;49.426;2022-11-13T03:51:07;9.07;75.01
67192;HTU21D;54120;53.504;49.426;2022-11-13T03:53:33;9.11;75.47
67192;HTU21D;54120;53.504;49.426;2022-11-13T03:55:59;9.16;74.97
67192;HTU21D;54120;53.504;49.426;2022-11-13T03:58:25;9.15;74.29
67192;HTU21D;54120;53.504;49.426;2022-11-13T04:00:53;9.12;74.89
67192;HTU21D;54120;53.504;49.426;2022-11-13T04:03:20;9.14;73.69
67192;HTU21D;54120;53.504;49.426;2022-11-13T04:05:48;9.11;73.36
67192;HTU21D;54120;53.504;49.426;2022-11-13T04:08:14;9.16;72.79
67192;HTU21D;54120;53.504;49.426;2022-11-13T04:10:41;9.12;72.74
67192;HTU21D;54120;53.504;49.426;2022-11-13T04:13:07;9.11;72.77
67192;HTU21D;54120;53.504;49.426;2022-11-13T04:15:34;9.11;72.30
67192;HTU21D;54120;53.504;49.426;2022-11-13T04:18:00;9.10;71.83
67192;HTU21D;54120;53.504;49.426;2022-11-13T04:20:26;9.11;72.34
67192;HTU21D;54120;53.504;49.426;2022-11-13T04:22:54;9.09;72.50
67192;HTU21D;54120;53.504;49.426;2022-11-13T04:25:20;9.09;73.85
67192;HTU21D;54120;53.504;49.426;2022-11-13T04:27:48;9.07;73.50
67192;HTU21D;54120;53.504;49.426;2022-11-13T04:30:14;9.03;73.88
67192;HTU21D;54120;53.504;49.426;2022-11-13T04:32:40;9.01;73.61
67192;HTU21D;54120;53.504;49.426;2022-11-13T04:35:07;9.03;73.81
67192;HTU21D;54120;53.504;49.426;2022-11-13T04:37:33;9.04;73.06
67192;HTU21D;54120;53.504;49.426;2022-11-13T04:39:59;9.04;72.90
67192;HTU21D;54120;53.504;49.426;2022-11-13T04:42:25;9.04;73.70
67192;HTU21D;54120;53.504;49.426;2022-11-13T04:45:10;9.05;73.41
67192;HTU21D;54120;53.504;49.426;2022-11-13T04:47:36;9.04;73.10
67192;HTU21D;54120;53.504;49.426;2022-11-13T04:50:02;9.02;73.00
67192;HTU21D;54120;53.504;49.426;2022-11-13T04:52:28;9.00;72.83
67192;HTU21D;54120;53.504;49.426;2022-11-13T04:54:54;8.96;73.37
67192;HTU21D;54120;53.504;49.426;2022-11-13T04:57:25;8.95;72.29
67192;HTU21D;54120;53.504;49.426;2022-11-13T04:59:51;8.97;72.35
67192;HTU21D;54120;53.504;49.426;2022-11-13T05:02:17;9.02;72.70
67192;HTU21D;54120;53.504;49.426;2022-11-13T05:04:43;9.03;72.18
67192;HTU21D;54120;53.504;49.426;2022-11-13T05:07:09;9.01;72.95
67192;HTU21D;54120;53.504;49.426;2022-11-13T05:09:35;8.97;72.45
67192;HTU21D;54120;53.504;49.426;2022-11-13T05:12:02;8.91;72.67
67192;HTU21D;54120;53.504;49.426;2022-11-13T05:14:29;8.85;72.83
67192;HTU21D;54120;53.504;49.426;2022-11-13T05:16:55;8.87;73.28
67192;HTU21D;54120;53.504;49.426;2022-11-13T05:19:21;8.88;73.54
67192;HTU21D;54120;53.504;49.426;2022-11-13T05:21:47;8.88;72.65
67192;HTU21D;54120;53.504;49.426;2022-11-13T05:24:13;8.87;73.44
67192;HTU21D;54120;53.504;49.426;2022-11-13T05:26:39;8.88;72.83
67192;HTU21D;54120;53.504;49.426;2022-11-13T05:29:05;8.94;73.02
67192;HTU21D;54120;53.504;49.426;2022-11-13T05:31:31;8.94;72.52
67192;HTU21D;54120;53.504;49.426;2022-11-13T05:33:57;9.00;72.01
67192;HTU21D;54120;53.504;49.426;2022-11-13T05:36:23;9.08;72.03
67192;HTU21D;54120;53.504;49.426;2022-11-13T05:38:49;9.12;72.53
67192;HTU21D;54120;53.504;49.426;2022-11-13T05:41:18;9.18;71.45
67192;HTU21D;54120;53.504;49.426;2022-11-13T05:43:45;9.12;72.24
67192;HTU21D;54120;53.504;49.426;2022-11-13T05:46:15;9.17;71.80
67192;HTU21D;54120;53.504;49.426;2022-11-13T05:48:42;9.16;72.70
67192;HTU21D;54120;53.504;49.426;2022-11-13T05:51:16;9.19;72.36
67192;HTU21D;54120;53.504;49.426;2022-11-13T05:53:43;9.29;71.89
67192;HTU21D;54120;53.504;49.426;2022-11-13T05:56:11;9.31;72.15
67192;HTU21D;54120;53.504;49.426;2022-11-13T05:58:38;9.32;72.18
67192;HTU21D;54120;53.504;49.426;2022-11-13T06:03:32;9.20;71.74
67192;HTU21D;54120;53.504;49.426;2022-11-13T06:05:58;9.20;71.74
67192;HTU21D;54120;53.504;49.426;2022-11-13T06:08:25;9.23;71.39
67192;HTU21D;54120;53.504;49.426;2022-11-13T06:10:51;9.27;71.86
67192;HTU21D;54120;53.504;49.426;2022-11-13T06:13:17;9.26;70.79
67192;HTU21D;54120;53.504;49.426;2022-11-13T06:15:46;9.29;70.54
67192;HTU21D;54120;53.504;49.426;2022-11-13T06:18:12;9.37;71.06
67192;HTU21D;54120;53.504;49.426;2022-11-13T06:20:38;9.41;70.45
67192;HTU21D;54120;53.504;49.426;2022-11-13T06:23:04;9.42;71.53
67192;HTU21D;54120;53.504;49.426;2022-11-13T06:25:30;9.37;70.90
67192;HTU21D;54120;53.504;49.426;2022-11-13T06:27:56;9.39;71.55
67192;HTU21D;54120;53.504;49.426;2022-11-13T06:30:22;9.41;71.61
67192;HTU21D;54120;53.504;49.426;2022-11-13T06:32:52;9.46;71.16
67192;HTU21D;54120;53.504;49.426;2022-11-13T06:35:19;9.32;70.91
67192;HTU21D;54120;53.504;49.426;2022-11-13T06:37:45;9.35;71.73
67192;HTU21D;54120;53.504;49.426;2022-11-13T06:40:11;9.33;71.86
67192;HTU21D;54120;53.504;49.426;2022-11-13T06:42:38;9.27;72.55
67192;HTU21D;54120;53.504;49.426;2022-11-13T06:45:04;9.34;71.55
67192;HTU21D;54120;53.504;49.426;2022-11-13T06:47:31;9.39;71.64
67192;HTU21D;54120;53.504;49.426;2022-11-13T06:49:57;9.36;70.85
67192;HTU21D;54120;53.504;49.426;2022-11-13T06:52:23;9.24;71.67
67192;HTU21D;54120;53.504;49.426;2022-11-13T06:54:49;9.31;71.59
67192;HTU21D;54120;53.504;49.426;2022-11-13T06:57:15;9.32;70.48
67192;HTU21D;54120;53.504;49.426;2022-11-13T06:59:41;9.26;70.62
67192;HTU21D;54120;53.504;49.426;2022-11-13T07:02:10;9.25;70.83
67192;HTU21D;54120;53.504;49.426;2022-11-13T07:04:36;9.25;70.87
67192;HTU21D;54120;53.504;49.426;2022-11-13T07:07:02;9.10;71.29
67192;HTU21D;54120;53.504;49.426;2022-11-13T07:09:30;9.12;71.78
67192;HTU21D;54120;53.504;49.426;2022-11-13T07:11:56;9.06;71.39
67192;HTU21D;54120;53.504;49.426;2022-11-13T07:14:22;9.05;72.06
67192;HTU21D;54120;53.504;49.426;2022-11-13T07:16:48;9.07;71.71
67192;HTU21D;54120;53.504;49.426;2022-11-13T07:19:14;8.95;71.72
67192;HTU21D;54120;53.504;49.426;2022-11-13T07:21:40;8.93;73.02
67192;HTU21D;54120;53.504;49.426;2022-11-13T07:24:06;8.96;72.87
67192;HTU21D;54120;53.504;49.426;2022-11-13T07:26:35;9.03;72.36
67192;HTU21D;54120;53.504;49.426;2022-11-13T07:29:01;9.08;71.48
67192;HTU21D;54120;53.504;49.426;2022-11-13T07:31:27;9.10;71.71
67192;HTU21D;54120;53.504;49.426;2022-11-13T07:33:53;9.09;71.48
67192;HTU21D;54120;53.504;49.426;2022-11-13T07:36:19;9.17;71.80
67192;HTU21D;54120;53.504;49.426;2022-11-13T07:38:48;9.19;71.82
67192;HTU21D;54120;53.504;49.426;2022-11-13T07:41:14;9.14;72.03
67192;HTU21D;54120;53.504;49.426;2022-11-13T07:43:40;9.11;71.58
67192;HTU21D;54120;53.504;49.426;2022-11-13T07:46:06;9.09;72.08
67192;HTU21D;54120;53.504;49.426;2022-11-13T07:48:35;9.15;71.87
67192;HTU21D;54120;53.504;49.426;2022-11-13T07:51:01;9.22;71.81
67192;HTU21D;54120;53.504;49.426;2022-11-13T07:53:28;9.37;71.41
67192;HTU21D;54120;53.504;49.426;2022-11-13T07:55:54;9.48;69.92
67192;HTU21D;54120;53.504;49.426;2022-11-13T07:58:20;9.48;69.92
67192;HTU21D;54120;53.504;49.426;2022-11-13T08:00:46;9.49;70.39
67192;HTU21D;54120;53.504;49.426;2022-11-13T08:03:17;9.49;70.39
67192;HTU21D;54120;53.504;49.426;2022-11-13T08:05:46;9.34;70.16
67192;HTU21D;54120;53.504;49.426;2022-11-13T08:08:17;9.29;70.81
67192;HTU21D;54120;53.504;49.426;2022-11-13T08:10:43;9.32;70.79
67192;HTU21D;54120;53.504;49.426;2022-11-13T08:13:12;9.37;70.52
67192;HTU21D;54120;53.504;49.426;2022-11-13T08:15:38;9.41;70.51
67192;HTU21D;54120;53.504;49.426;2022-11-13T08:18:05;9.44;69.64
67192;HTU21D;54120;53.504;49.426;2022-11-13T08:20:32;9.50;69.90
67192;HTU21D;54120;53.504;49.426;2022-11-13T08:23:00;9.45;68.94
67192;HTU21D;54120;53.504;49.426;2022-11-13T08:25:27;9.46;69.17
67192;HTU21D;54120;53.504;49.426;2022-11-13T08:27:54;9.59;69.43
67192;HTU21D;54120;53.504;49.426;2022-11-13T08:30:20;9.64;69.02
67192;HTU21D;54120;53.504;49.426;2022-11-13T08:32:47;9.70;68.17
67192;HTU21D;54120;53.504;49.426;2022-11-13T08:35:13;9.74;67.01
67192;HTU21D;54120;53.504;49.426;2022-11-13T08:37:42;9.56;67.84
67192;HTU21D;54120;53.504;49.426;2022-11-13T08:40:09;9.52;67.79
67192;HTU21D;54120;53.504;49.426;2022-11-13T08:42:36;9.52;68.17
67192;HTU21D;54120;53.504;49.426;2022-11-13T08:45:03;9.46;69.57
67192;HTU21D;54120;53.504;49.426;2022-11-13T08:47:29;9.50;69.48
67192;HTU21D;54120;53.504;49.426;2022-11-13T08:49:57;9.47;68.86
67192;HTU21D;54120;53.504;49.426;2022-11-13T08:52:23;9.45;69.17
67192;HTU21D;54120;53.504;49.426;2022-11-13T08:54:49;9.49;69.54
67192;HTU21D;54120;53.504;49.426;2022-11-13T08:57:15;9.45;70.09
67192;HTU21D;54120;53.504;49.426;2022-11-13T08:59:42;9.42;69.74
67192;HTU21D;54120;53.504;49.426;2022-11-13T09:02:17;9.26;70.89
67192;HTU21D;54120;53.504;49.426;2022-11-13T09:04:51;9.26;70.97
67192;HTU21D;54120;53.504;49.426;2022-11-13T09:07:17;9.27;70.68
67192;HTU21D;54120;53.504;49.426;2022-11-13T09:09:43;9.22;70.77
67192;HTU21D;54120;53.504;49.426;2022-11-13T09:12:09;9.17;71.00
67192;HTU21D;54120;53.504;49.426;2022-11-13T09:14:35;9.12;71.04
67192;HTU21D;54120;53.504;49.426;2022-11-13T09:17:02;9.12;71.71
67192;HTU21D;54120;53.504;49.426;2022-11-13T09:19:28;9.02;71.86
67192;HTU21D;54120;53.504;49.426;2022-11-13T09:21:54;8.96;72.25
67192;HTU21D;54120;53.504;49.426;2022-11-13T09:24:20;8.96;72.96
67192;HTU21D;54120;53.504;49.426;2022-11-13T09:26:46;8.82;73.36
67192;HTU21D;54120;53.504;49.426;2022-11-13T09:29:12;8.78;73.67
67192;HTU21D;54120;53.504;49.426;2022-11-13T09:31:38;8.72;73.63
67192;HTU21D;54120;53.504;49.426;2022-11-13T09:34:06;8.67;74.86
67192;HTU21D;54120;53.504;49.426;2022-11-13T09:36:32;8.63;76.22
67192;HTU21D;54120;53.504;49.426;2022-11-13T09:38:58;8.60;76.57
67192;HTU21D;54120;53.504;49.426;2022-11-13T09:41:32;8.61;77.27
67192;HTU21D;54120;53.504;49.426;2022-11-13T09:44:02;8.70;76.16
67192;HTU21D;54120;53.504;49.426;2022-11-13T09:46:52;8.72;74.44
67192;HTU21D;54120;53.504;49.426;2022-11-13T09:49:37;8.72;75.60
67192;HTU21D;54120;53.504;49.426;2022-11-13T09:52:17;8.65;76.20
67192;HTU21D;54120;53.504;49.426;2022-11-13T09:54:45;8.62;76.52
67192;HTU21D;54120;53.504;49.426;2022-11-13T09:59:47;8.55;76.01
67192;HTU21D;54120;53.504;49.426;2022-11-13T10:05:27;8.48;77.04
67192;HTU21D;54120;53.504;49.426;2022-11-13T10:08:05;8.62;76.67
67192;HTU21D;54120;53.504;49.426;2022-11-13T10:13:41;8.49;75.23
67192;HTU21D;54120;53.504;49.426;2022-11-13T10:19:27;8.33;77.72
67192;HTU21D;54120;53.504;49.426;2022-11-13T10:22:08;8.08;80.65
67192;HTU21D;54120;53.504;49.426;2022-11-13T10:24:45;7.82;83.94
67192;HTU21D;54120;53.504;49.426;2022-11-13T10:27:16;7.46;89.42
67192;HTU21D;54120;53.504;49.426;2022-11-13T10:29:42;7.30;89.66
67192;HTU21D;54120;53.504;49.426;2022-11-13T10:32:20;7.27;92.80
67192;HTU21D;54120;53.504;49.426;2022-11-13T10:35:00;7.26;91.95
67192;HTU21D;54120;53.504;49.426;2022-11-13T10:37:48;7.17;92.54
67192;HTU21D;54120;53.504;49.426;2022-11-13T10:40:26;7.15;92.93
67192;HTU21D;54120;53.504;49.426;2022-11-13T10:43:06;7.14;93.72
67192;HTU21D;54120;53.504;49.426;2022-11-13T10:45:42;7.12;92.73
67192;HTU21D;54120;53.504;49.426;2022-11-13T10:48:32;7.20;94.47
67192;HTU21D;54120;53.504;49.426;2022-11-13T10:51:19;7.28;93.80
67192;HTU21D;54120;53.504;49.426;2022-11-13T10:53:46;7.35;93.25
67192;HTU21D;54120;53.504;49.426;2022-11-13T10:59:15;7.24;93.90
67192;HTU21D;54120;53.504;49.426;2022-11-13T11:01:43;7.28;91.89
67192;HTU21D;54120;53.504;49.426;2022-11-13T11:07:34;7.41;88.66
67192;HTU21D;54120;53.504;49.426;2022-11-13T11:10:52;7.48;87.32
67192;HTU21D;54120;53.504;49.426;2022-11-13T11:12:54;7.37;87.83
67192;HTU21D;54120;53.504;49.426;2022-11-13T11:15:25;7.31;89.72
67192;HTU21D;54120;53.504;49.426;2022-11-13T11:17:59;7.24;90.13
67192;HTU21D;54120;53.504;49.426;2022-11-13T11:20:46;7.13;89.85
67192;HTU21D;54120;53.504;49.426;2022-11-13T11:26:02;7.10;90.46
67192;HTU21D;54120;53.504;49.426;2022-11-13T11:28:31;7.07;91.71
67192;HTU21D;54120;53.504;49.426;2022-11-13T11:31:07;7.04;91.11
67192;HTU21D;54120;53.504;49.426;2022-11-13T11:34:03;7.05;90.52
67192;HTU21D;54120;53.504;49.426;2022-11-13T11:39:59;7.11;91.21
67192;HTU21D;54120;53.504;49.426;2022-11-13T11:42:35;7.14;89.17
67192;HTU21D;54120;53.504;49.426;2022-11-13T11:45:31;7.13;88.65
67192;HTU21D;54120;53.504;49.426;2022-11-13T11:48:02;7.10;89.86
67192;HTU21D;54120;53.504;49.426;2022-11-13T11:51:33;7.08;89.16
67192;HTU21D;54120;53.504;49.426;2022-11-13T11:56:35;7.12;88.29
67192;HTU21D;54120;53.504;49.426;2022-11-13T12:16:05;6.63;93.71
67192;HTU21D;54120;53.504;49.426;2022-11-13T12:26:46;6.37;98.00
67192;HTU21D;54120;53.504;49.426;2022-11-13T12:34:52;6.27;95.21
67192;HTU21D;54120;53.504;49.426;2022-11-13T12:39:57;6.38;94.62
67192;HTU21D;54120;53.504;49.426;2022-11-13T12:45:54;6.43;92.44
67192;HTU21D;54120;53.504;49.426;2022-11-13T12:48:32;6.50;93.27
67192;HTU21D;54120;53.504;49.426;2022-11-13T12:51:01;6.52;92.85
67192;HTU21D;54120;53.504;49.426;2022-11-13T12:53:30;6.49;93.40
67192;HTU21D;54120;53.504;49.426;2022-11-13T12:56:33;6.52;93.47
67192;HTU21D;54120;53.504;49.426;2022-11-13T13:01:50;6.48;94.16
67192;HTU21D;54120;53.504;49.426;2022-11-13T13:04:44;6.55;93.23
67192;HTU21D;54120;53.504;49.426;2022-11-13T13:09:53;6.60;91.61
67192;HTU21D;54120;53.504;49.426;2022-11-13T13:15:26;6.58;91.82
67192;HTU21D;54120;53.504;49.426;2022-11-13T13:21:06;6.54;90.76
67192;HTU21D;54120;53.504;49.426;2022-11-13T13:28:39;6.54;88.08
67192;HTU21D;54120;53.504;49.426;2022-11-13T13:33:59;6.64;88.47
67192;HTU21D;54120;53.504;49.426;2022-11-13T13:37:19;6.59;88.84
67192;HTU21D;54120;53.504;49.426;2022-11-13T13:39:46;6.60;89.38
67192;HTU21D;54120;53.504;49.426;2022-11-13T13:42:38;6.57;89.51
67192;HTU21D;54120;53.504;49.426;2022-11-13T13:47:48;6.54;90.37
67192;HTU21D;54120;53.504;49.426;2022-11-13T13:50:28;6.46;90.95
67192;HTU21D;54120;53.504;49.426;2022-11-13T13:52:57;6.42;90.91
67192;HTU21D;54120;53.504;49.426;2022-11-13T13:55:33;6.42;91.68
67192;HTU21D;54120;53.504;49.426;2022-11-13T13:58:02;6.38;90.81
67192;HTU21D;54120;53.504;49.426;2022-11-13T14:00:30;6.38;90.44
67192;HTU21D;54120;53.504;49.426;2022-11-13T14:02:56;6.37;89.83
67192;HTU21D;54120;53.504;49.426;2022-11-13T14:05:29;6.38;88.97
67192;HTU21D;54120;53.504;49.426;2022-11-13T14:07:56;6.40;88.37
67192;HTU21D;54120;53.504;49.426;2022-11-13T14:10:24;6.38;88.44
67192;HTU21D;54120;53.504;49.426;2022-11-13T14:12:51;6.39;88.04
67192;HTU21D;54120;53.504;49.426;2022-11-13T14:15:27;6.40;88.21
67192;HTU21D;54120;53.504;49.426;2022-11-13T14:18:15;6.37;88.35
67192;HTU21D;54120;53.504;49.426;2022-11-13T14:20:49;6.31;88.58
67192;HTU21D;54120;53.504;49.426;2022-11-13T14:25:54;6.26;88.17
67192;HTU21D;54120;53.504;49.426;2022-11-13T14:28:26;6.27;88.95
67192;HTU21D;54120;53.504;49.426;2022-11-13T14:31:01;6.23;88.71
67192;HTU21D;54120;53.504;49.426;2022-11-13T14:33:33;6.21;88.78
67192;HTU21D;54120;53.504;49.426;2022-11-13T14:36:00;6.16;89.15
67192;HTU21D;54120;53.504;49.426;2022-11-13T14:38:33;6.19;88.22
67192;HTU21D;54120;53.504;49.426;2022-11-13T14:41:01;6.12;88.50
67192;HTU21D;54120;53.504;49.426;2022-11-13T14:43:31;6.17;89.07
67192;HTU21D;54120;53.504;49.426;2022-11-13T14:46:03;6.19;88.25
67192;HTU21D;54120;53.504;49.426;2022-11-13T14:48:32;6.20;88.38
67192;HTU21D;54120;53.504;49.426;2022-11-13T14:51:00;6.23;87.41
67192;HTU21D;54120;53.504;49.426;2022-11-13T14:56:03;6.26;86.48
67192;HTU21D;54120;53.504;49.426;2022-11-13T14:58:32;6.30;86.39
67192;HTU21D;54120;53.504;49.426;2022-11-13T15:03:40;6.49;83.11
67192;HTU21D;54120;53.504;49.426;2022-11-13T15:06:24;6.48;83.17
67192;HTU21D;54120;53.504;49.426;2022-11-13T15:08:54;6.44;83.24
67192;HTU21D;54120;53.504;49.426;2022-11-13T15:11:23;6.44;83.26
67192;HTU21D;54120;53.504;49.426;2022-11-13T15:13:49;6.44;82.75
67192;HTU21D;54120;53.504;49.426;2022-11-13T15:16:21;6.50;82.63
67192;HTU21D;54120;53.504;49.426;2022-11-13T15:21:24;6.44;83.44
67192;HTU21D;54120;53.504;49.426;2022-11-13T15:23:50;6.48;83.43
67192;HTU21D;54120;53.504;49.426;2022-11-13T15:26:17;6.46;82.76
67192;HTU21D;54120;53.504;49.426;2022-11-13T15:28:43;6.51;82.88
67192;HTU21D;54120;53.504;49.426;2022-11-13T15:31:23;6.52;82.35
67192;HTU21D;54120;53.504;49.426;2022-11-13T15:33:51;6.50;82.04
67192;HTU21D;54120;53.504;49.426;2022-11-13T15:36:18;6.51;82.26
67192;HTU21D;54120;53.504;49.426;2022-11-13T15:38:44;6.49;82.42
67192;HTU21D;54120;53.504;49.426;2022-11-13T15:41:16;6.46;82.03
67192;HTU21D;54120;53.504;49.426;2022-11-13T15:43:46;6.48;81.92
67192;HTU21D;54120;53.504;49.426;2022-11-13T15:46:14;6.44;81.49
67192;HTU21D;54120;53.504;49.426;2022-11-13T15:48:42;6.45;81.81
67192;HTU21D;54120;53.504;49.426;2022-11-13T15:53:44;6.42;82.07
67192;HTU21D;54120;53.504;49.426;2022-11-13T15:56:11;6.39;81.90
67192;HTU21D;54120;53.504;49.426;2022-11-13T15:58:37;6.40;82.26
67192;HTU21D;54120;53.504;49.426;2022-11-13T16:01:03;6.37;82.52
67192;HTU21D;54120;53.504;49.426;2022-11-13T16:03:29;6.38;82.20
67192;HTU21D;54120;53.504;49.426;2022-11-13T16:05:58;6.41;82.36
67192;HTU21D;54120;53.504;49.426;2022-11-13T16:08:24;6.39;82.21
67192;HTU21D;54120;53.504;49.426;2022-11-13T16:10:50;6.38;82.05
67192;HTU21D;54120;53.504;49.426;2022-11-13T16:13:16;6.35;82.20
67192;HTU21D;54120;53.504;49.426;2022-11-13T16:15:42;6.34;81.85
67192;HTU21D;54120;53.504;49.426;2022-11-13T16:18:23;6.31;82.64
67192;HTU21D;54120;53.504;49.426;2022-11-13T16:20:49;6.29;82.91
67192;HTU21D;54120;53.504;49.426;2022-11-13T16:23:16;6.24;83.21
67192;HTU21D;54120;53.504;49.426;2022-11-13T16:25:43;6.20;84.43
67192;HTU21D;54120;53.504;49.426;2022-11-13T16:28:17;6.12;84.48
67192;HTU21D;54120;53.504;49.426;2022-11-13T16:30:44;6.04;85.05
67192;HTU21D;54120;53.504;49.426;2022-11-13T16:33:11;5.93;86.19
67192;HTU21D;54120;53.504;49.426;2022-11-13T16:35:40;5.89;85.09
67192;HTU21D;54120;53.504;49.426;2022-11-13T16:38:11;5.91;84.84
67192;HTU21D;54120;53.504;49.426;2022-11-13T16:40:37;5.90;85.05
67192;HTU21D;54120;53.504;49.426;2022-11-13T16:43:08;5.87;84.24
67192;HTU21D;54120;53.504;49.426;2022-11-13T16:45:36;5.83;84.38
67192;HTU21D;54120;53.504;49.426;2022-11-13T16:48:11;5.80;84.62
67192;HTU21D;54120;53.504;49.426;2022-11-13T16:50:40;5.82;82.92
67192;HTU21D;54120;53.504;49.426;2022-11-13T16:53:07;5.80;82.27
67192;HTU21D;54120;53.504;49.426;2022-11-13T16:55:35;5.78;82.16
67192;HTU21D;54120;53.504;49.426;2022-11-13T16:58:02;5.78;83.85
67192;HTU21D;54120;53.504;49.426;2022-11-13T17:00:29;5.75;83.27
67192;HTU21D;54120;53.504;49.426;2022-11-13T17:02:55;5.68;83.04
67192;HTU21D;54120;53.504;49.426;2022-11-13T17:05:22;5.64;82.76
67192;HTU21D;54120;53.504;49.426;2022-11-13T17:07:49;5.61;82.97
67192;HTU21D;54120;53.504;49.426;2022-11-13T17:10:19;5.59;83.03